Terminal Aerodrome Forecast
Issued by NWS

Current Version | Previous Version | Graphics & Text | Print | Product List | Glossary On
Versions: 1 2 3 4 5 6 7 8 9 10 11 12 13 14 15 16 17 18 19 20 21 22 23 24 25
000
FTUS41 KILN 150700 AAA
TAFLUK
TAF AMD
KLUK 150747Z 1508/1606 00000KT P6SM OVC025
     FM151000 00000KT P6SM BKN050
      TEMPO 1510/1513 4SM BR
     FM151400 15006KT P6SM OVC025
     FM151700 15009KT P6SM BKN025
     FM151900 15009KT P6SM SCT025 OVC250
     FM160000 14003KT P6SM -RA OVC025
     FM160400 17003KT P6SM VCSH OVC019=

USA.gov is the U.S. government's official web portal to all federal, state and local government web resources and services.